sensor_id;sensor_type;location;lat;lon;timestamp;pressure;altitude;pressure_sealevel;temperature;humidity
79374;BME280;68844;53.128;17.958;2023-06-22T00:01:20;101271.49;;;18.92;79.41
79374;BME280;68844;53.128;17.958;2023-06-22T00:03:47;101275.18;;;18.93;79.46
79374;BME280;68844;53.128;17.958;2023-06-22T00:06:14;101277.19;;;18.92;79.22
79374;BME280;68844;53.128;17.958;2023-06-22T00:08:41;101280.45;;;18.94;79.16
79374;BME280;68844;53.128;17.958;2023-06-22T00:11:08;101285.48;;;19.00;78.97
79374;BME280;68844;53.128;17.958;2023-06-22T00:13:35;101290.03;;;19.05;78.95
79374;BME280;68844;53.128;17.958;2023-06-22T00:16:01;101290.21;;;19.07;79.22
79374;BME280;68844;53.128;17.958;2023-06-22T00:18:28;101289.11;;;19.05;79.22
79374;BME280;68844;53.128;17.958;2023-06-22T00:20:57;101291.41;;;19.06;79.21
79374;BME280;68844;53.128;17.958;2023-06-22T00:23:25;101290.80;;;19.04;79.00
79374;BME280;68844;53.128;17.958;2023-06-22T00:25:52;101287.11;;;19.06;79.12
79374;BME280;68844;53.128;17.958;2023-06-22T00:28:19;101294.08;;;19.10;79.37
79374;BME280;68844;53.128;17.958;2023-06-22T00:30:46;101297.76;;;19.13;79.42
79374;BME280;68844;53.128;17.958;2023-06-22T00:33:13;101302.06;;;19.15;79.26
79374;BME280;68844;53.128;17.958;2023-06-22T00:35:40;101303.98;;;19.15;79.11
79374;BME280;68844;53.128;17.958;2023-06-22T00:38:08;101306.35;;;19.15;79.10
79374;BME280;68844;53.128;17.958;2023-06-22T00:40:35;101307.81;;;19.19;78.82
79374;BME280;68844;53.128;17.958;2023-06-22T00:43:02;101308.21;;;19.20;78.97
79374;BME280;68844;53.128;17.958;2023-06-22T00:45:30;101307.16;;;19.22;79.07
79374;BME280;68844;53.128;17.958;2023-06-22T00:47:57;101309.65;;;19.22;79.01
79374;BME280;68844;53.128;17.958;2023-06-22T00:50:27;101306.38;;;19.23;78.61
79374;BME280;68844;53.128;17.958;2023-06-22T00:52:56;101303.41;;;19.26;78.66
79374;BME280;68844;53.128;17.958;2023-06-22T00:55:24;101306.49;;;19.28;78.73
79374;BME280;68844;53.128;17.958;2023-06-22T00:57:52;101307.21;;;19.26;79.15
79374;BME280;68844;53.128;17.958;2023-06-22T01:00:24;101308.63;;;19.22;78.86
79374;BME280;68844;53.128;17.958;2023-06-22T01:02:52;101307.68;;;19.20;78.91
79374;BME280;68844;53.128;17.958;2023-06-22T01:05:20;101309.11;;;19.20;78.57
79374;BME280;68844;53.128;17.958;2023-06-22T01:10:21;101309.75;;;19.10;78.76
79374;BME280;68844;53.128;17.958;2023-06-22T01:12:55;101311.70;;;19.02;78.94
79374;BME280;68844;53.128;17.958;2023-06-22T01:15:34;101315.41;;;18.92;79.03
79374;BME280;68844;53.128;17.958;2023-06-22T01:18:04;101315.28;;;18.83;79.21
79374;BME280;68844;53.128;17.958;2023-06-22T01:20:34;101312.67;;;18.80;78.96
79374;BME280;68844;53.128;17.958;2023-06-22T01:29:26;101313.63;;;18.53;79.09
79374;BME280;68844;53.128;17.958;2023-06-22T01:31:56;101310.05;;;18.47;78.89
79374;BME280;68844;53.128;17.958;2023-06-22T01:34:24;101313.22;;;18.40;79.11
79374;BME280;68844;53.128;17.958;2023-06-22T01:36:52;101312.81;;;18.32;79.30
79374;BME280;68844;53.128;17.958;2023-06-22T01:39:19;101312.49;;;18.23;79.23
79374;BME280;68844;53.128;17.958;2023-06-22T01:41:48;101313.31;;;18.15;78.96
79374;BME280;68844;53.128;17.958;2023-06-22T01:44:15;101311.86;;;18.09;78.81
79374;BME280;68844;53.128;17.958;2023-06-22T01:46:43;101311.77;;;18.01;78.97
79374;BME280;68844;53.128;17.958;2023-06-22T01:49:10;101314.95;;;17.92;79.16
79374;BME280;68844;53.128;17.958;2023-06-22T01:51:37;101320.43;;;17.84;79.20
79374;BME280;68844;53.128;17.958;2023-06-22T01:54:06;101316.73;;;17.74;79.06
79374;BME280;68844;53.128;17.958;2023-06-22T01:56:33;101314.48;;;17.64;79.19
79374;BME280;68844;53.128;17.958;2023-06-22T01:59:17;101314.39;;;17.56;79.11
79374;BME280;68844;53.128;17.958;2023-06-22T02:01:54;101314.21;;;17.49;79.37
79374;BME280;68844;53.128;17.958;2023-06-22T02:04:35;101316.36;;;17.42;79.74
79374;BME280;68844;53.128;17.958;2023-06-22T02:07:06;101317.20;;;17.33;79.59
79374;BME280;68844;53.128;17.958;2023-06-22T02:09:37;101316.25;;;17.25;79.38
79374;BME280;68844;53.128;17.958;2023-06-22T02:12:06;101318.02;;;17.20;79.44
79374;BME280;68844;53.128;17.958;2023-06-22T02:14:35;101318.09;;;17.14;79.94
79374;BME280;68844;53.128;17.958;2023-06-22T02:17:03;101314.25;;;17.09;80.03
79374;BME280;68844;53.128;17.958;2023-06-22T02:19:38;101325.07;;;17.02;80.08
79374;BME280;68844;53.128;17.958;2023-06-22T02:22:05;101330.94;;;16.95;79.85
79374;BME280;68844;53.128;17.958;2023-06-22T02:24:32;101340.17;;;16.93;80.01
79374;BME280;68844;53.128;17.958;2023-06-22T02:27:01;101345.58;;;16.90;80.37
79374;BME280;68844;53.128;17.958;2023-06-22T02:29:28;101348.95;;;16.85;80.43
79374;BME280;68844;53.128;17.958;2023-06-22T02:31:55;101351.42;;;16.81;80.89
79374;BME280;68844;53.128;17.958;2023-06-22T02:34:22;101352.94;;;16.77;80.91
79374;BME280;68844;53.128;17.958;2023-06-22T02:36:51;101355.90;;;16.78;80.96
79374;BME280;68844;53.128;17.958;2023-06-22T02:39:22;101356.37;;;16.81;81.23
79374;BME280;68844;53.128;17.958;2023-06-22T02:41:50;101355.02;;;16.82;81.75
79374;BME280;68844;53.128;17.958;2023-06-22T02:44:18;101346.96;;;16.81;81.76
79374;BME280;68844;53.128;17.958;2023-06-22T02:46:46;101343.84;;;16.82;81.74
79374;BME280;68844;53.128;17.958;2023-06-22T02:49:14;101353.21;;;16.90;81.74
79374;BME280;68844;53.128;17.958;2023-06-22T02:51:48;101353.89;;;16.98;81.54
79374;BME280;68844;53.128;17.958;2023-06-22T02:54:17;101349.23;;;17.05;81.49
79374;BME280;68844;53.128;17.958;2023-06-22T02:56:44;101344.91;;;17.10;81.09
79374;BME280;68844;53.128;17.958;2023-06-22T02:59:11;101347.60;;;17.15;80.89
79374;BME280;68844;53.128;17.958;2023-06-22T03:01:38;101346.08;;;17.24;80.41
79374;BME280;68844;53.128;17.958;2023-06-22T03:04:09;101354.21;;;17.31;80.48
79374;BME280;68844;53.128;17.958;2023-06-22T03:06:36;101355.86;;;17.37;80.49
79374;BME280;68844;53.128;17.958;2023-06-22T03:09:04;101354.91;;;17.41;80.18
79374;BME280;68844;53.128;17.958;2023-06-22T03:11:32;101360.81;;;17.45;79.74
79374;BME280;68844;53.128;17.958;2023-06-22T03:14:00;101368.17;;;17.49;79.53
79374;BME280;68844;53.128;17.958;2023-06-22T03:16:28;101369.98;;;17.57;79.55
79374;BME280;68844;53.128;17.958;2023-06-22T03:18:56;101374.33;;;17.62;79.53
79374;BME280;68844;53.128;17.958;2023-06-22T03:21:23;101375.80;;;17.71;79.25
79374;BME280;68844;53.128;17.958;2023-06-22T03:23:52;101372.48;;;18.22;78.55
79374;BME280;68844;53.128;17.958;2023-06-22T03:26:19;101375.16;;;18.84;77.30
79374;BME280;68844;53.128;17.958;2023-06-22T03:28:46;101373.40;;;19.48;75.35
79374;BME280;68844;53.128;17.958;2023-06-22T03:31:13;101372.86;;;19.98;74.70
79374;BME280;68844;53.128;17.958;2023-06-22T03:33:40;101374.38;;;20.19;73.93
79374;BME280;68844;53.128;17.958;2023-06-22T03:36:07;101376.80;;;20.81;72.20
79374;BME280;68844;53.128;17.958;2023-06-22T03:38:35;101374.34;;;21.21;70.28
79374;BME280;68844;53.128;17.958;2023-06-22T03:41:01;101379.67;;;21.62;68.60
79374;BME280;68844;53.128;17.958;2023-06-22T03:43:29;101378.92;;;22.04;66.83
79374;BME280;68844;53.128;17.958;2023-06-22T03:45:56;101385.34;;;22.42;66.18
79374;BME280;68844;53.128;17.958;2023-06-22T03:48:23;101386.43;;;22.73;64.49
79374;BME280;68844;53.128;17.958;2023-06-22T03:50:49;101392.23;;;23.02;63.50
79374;BME280;68844;53.128;17.958;2023-06-22T03:53:16;101394.91;;;23.41;61.89
79374;BME280;68844;53.128;17.958;2023-06-22T03:55:50;101396.73;;;23.64;61.67
79374;BME280;68844;53.128;17.958;2023-06-22T03:58:19;101396.00;;;23.74;60.53
79374;BME280;68844;53.128;17.958;2023-06-22T04:00:48;101390.00;;;24.01;60.20
79374;BME280;68844;53.128;17.958;2023-06-22T04:03:15;101390.24;;;24.23;59.91
79374;BME280;68844;53.128;17.958;2023-06-22T04:05:42;101391.73;;;24.55;57.66
79374;BME280;68844;53.128;17.958;2023-06-22T04:08:09;101396.53;;;24.98;55.80
79374;BME280;68844;53.128;17.958;2023-06-22T04:10:36;101399.30;;;25.24;54.91
79374;BME280;68844;53.128;17.958;2023-06-22T04:13:02;101394.74;;;25.54;55.00
79374;BME280;68844;53.128;17.958;2023-06-22T04:15:29;101395.45;;;25.53;54.43
79374;BME280;68844;53.128;17.958;2023-06-22T04:17:56;101392.76;;;25.86;53.10
79374;BME280;68844;53.128;17.958;2023-06-22T04:20:23;101395.71;;;26.47;51.62
79374;BME280;68844;53.128;17.958;2023-06-22T04:22:53;101397.90;;;27.04;49.95
79374;BME280;68844;53.128;17.958;2023-06-22T04:25:21;101398.02;;;27.38;50.06
79374;BME280;68844;53.128;17.958;2023-06-22T04:27:48;101398.69;;;27.84;48.77
79374;BME280;68844;53.128;17.958;2023-06-22T04:30:15;101396.73;;;28.09;47.90
79374;BME280;68844;53.128;17.958;2023-06-22T04:32:43;101392.08;;;28.31;47.29
79374;BME280;68844;53.128;17.958;2023-06-22T04:35:11;101386.11;;;28.78;46.28
79374;BME280;68844;53.128;17.958;2023-06-22T04:37:38;101389.01;;;29.02;44.39
79374;BME280;68844;53.128;17.958;2023-06-22T04:40:05;101394.14;;;29.35;44.19
79374;BME280;68844;53.128;17.958;2023-06-22T04:42:34;101386.21;;;29.67;42.94
79374;BME280;68844;53.128;17.958;2023-06-22T04:45:02;101391.36;;;29.82;41.24
79374;BME280;68844;53.128;17.958;2023-06-22T04:47:29;101400.12;;;30.22;41.38
79374;BME280;68844;53.128;17.958;2023-06-22T04:49:56;101403.98;;;30.45;39.94
79374;BME280;68844;53.128;17.958;2023-06-22T04:52:22;101403.75;;;30.48;39.57
79374;BME280;68844;53.128;17.958;2023-06-22T04:54:51;101402.51;;;30.58;39.49
79374;BME280;68844;53.128;17.958;2023-06-22T04:57:22;101401.98;;;31.24;39.53
79374;BME280;68844;53.128;17.958;2023-06-22T05:00:00;101407.25;;;31.79;37.44
79374;BME280;68844;53.128;17.958;2023-06-22T05:02:39;101407.04;;;31.90;35.96
79374;BME280;68844;53.128;17.958;2023-06-22T05:05:06;101409.79;;;31.77;36.56
79374;BME280;68844;53.128;17.958;2023-06-22T05:07:34;101407.26;;;31.88;36.38
79374;BME280;68844;53.128;17.958;2023-06-22T05:10:02;101411.52;;;32.31;36.14
79374;BME280;68844;53.128;17.958;2023-06-22T05:12:29;101421.13;;;32.45;35.72
79374;BME280;68844;53.128;17.958;2023-06-22T05:14:56;101422.17;;;32.60;33.93
79374;BME280;68844;53.128;17.958;2023-06-22T05:17:24;101423.11;;;32.96;34.33
79374;BME280;68844;53.128;17.958;2023-06-22T05:19:51;101418.05;;;32.95;34.13
79374;BME280;68844;53.128;17.958;2023-06-22T05:22:18;101417.08;;;33.44;33.53
79374;BME280;68844;53.128;17.958;2023-06-22T05:24:45;101428.16;;;33.13;32.49
79374;BME280;68844;53.128;17.958;2023-06-22T05:27:12;101433.25;;;33.22;32.88
79374;BME280;68844;53.128;17.958;2023-06-22T05:29:39;101437.80;;;33.65;32.39
79374;BME280;68844;53.128;17.958;2023-06-22T05:32:06;101434.70;;;34.11;31.71
79374;BME280;68844;53.128;17.958;2023-06-22T05:34:33;101435.48;;;34.18;31.04
79374;BME280;68844;53.128;17.958;2023-06-22T05:37:00;101435.54;;;34.72;30.93
79374;BME280;68844;53.128;17.958;2023-06-22T05:39:26;101434.53;;;34.78;29.41
79374;BME280;68844;53.128;17.958;2023-06-22T05:41:53;101443.15;;;33.78;30.87
79374;BME280;68844;53.128;17.958;2023-06-22T05:44:20;101437.85;;;34.22;30.63
79374;BME280;68844;53.128;17.958;2023-06-22T05:46:47;101431.39;;;34.24;30.41
79374;BME280;68844;53.128;17.958;2023-06-22T05:49:15;101428.09;;;34.56;29.96
79374;BME280;68844;53.128;17.958;2023-06-22T05:51:42;101421.52;;;34.77;29.69
79374;BME280;68844;53.128;17.958;2023-06-22T05:54:09;101420.67;;;34.93;29.71
79374;BME280;68844;53.128;17.958;2023-06-22T05:56:36;101424.89;;;35.60;29.11
79374;BME280;68844;53.128;17.958;2023-06-22T05:59:04;101422.38;;;35.93;28.12
79374;BME280;68844;53.128;17.958;2023-06-22T06:01:30;101428.15;;;36.21;28.22
79374;BME280;68844;53.128;17.958;2023-06-22T06:04:03;101428.88;;;36.57;26.92
79374;BME280;68844;53.128;17.958;2023-06-22T06:06:30;101426.38;;;36.86;26.25
79374;BME280;68844;53.128;17.958;2023-06-22T06:08:57;101425.33;;;36.88;26.71
79374;BME280;68844;53.128;17.958;2023-06-22T06:11:24;101423.33;;;37.47;26.47
79374;BME280;68844;53.128;17.958;2023-06-22T06:13:51;101421.30;;;38.06;25.79
79374;BME280;68844;53.128;17.958;2023-06-22T06:16:18;101410.81;;;38.42;25.26
79374;BME280;68844;53.128;17.958;2023-06-22T06:18:44;101412.19;;;38.75;24.57
79374;BME280;68844;53.128;17.958;2023-06-22T06:21:11;101417.30;;;39.41;23.92
79374;BME280;68844;53.128;17.958;2023-06-22T06:23:38;101418.78;;;40.05;22.61
79374;BME280;68844;53.128;17.958;2023-06-22T06:26:04;101428.00;;;39.77;22.67
79374;BME280;68844;53.128;17.958;2023-06-22T06:28:33;101429.81;;;40.26;22.14
79374;BME280;68844;53.128;17.958;2023-06-22T06:31:00;101431.21;;;40.79;21.58
79374;BME280;68844;53.128;17.958;2023-06-22T06:33:27;101435.61;;;41.50;20.97
79374;BME280;68844;53.128;17.958;2023-06-22T06:35:54;101437.13;;;42.12;20.51
79374;BME280;68844;53.128;17.958;2023-06-22T06:38:22;101430.31;;;41.71;19.30
79374;BME280;68844;53.128;17.958;2023-06-22T06:40:49;101430.77;;;41.09;19.93
79374;BME280;68844;53.128;17.958;2023-06-22T06:43:16;101431.45;;;41.51;20.03
79374;BME280;68844;53.128;17.958;2023-06-22T06:45:46;101426.19;;;40.84;19.39
79374;BME280;68844;53.128;17.958;2023-06-22T06:48:13;101425.20;;;39.95;20.10
79374;BME280;68844;53.128;17.958;2023-06-22T06:50:39;101421.75;;;39.31;20.93
79374;BME280;68844;53.128;17.958;2023-06-22T06:53:06;101419.89;;;39.87;20.49
79374;BME280;68844;53.128;17.958;2023-06-22T06:55:33;101418.88;;;39.62;20.64
79374;BME280;68844;53.128;17.958;2023-06-22T06:58:00;101415.13;;;39.56;20.51
79374;BME280;68844;53.128;17.958;2023-06-22T07:00:27;101419.95;;;39.50;21.16
79374;BME280;68844;53.128;17.958;2023-06-22T07:02:54;101427.80;;;39.92;20.75
79374;BME280;68844;53.128;17.958;2023-06-22T07:05:20;101422.20;;;40.16;20.02
79374;BME280;68844;53.128;17.958;2023-06-22T07:07:47;101417.13;;;40.30;19.66
79374;BME280;68844;53.128;17.958;2023-06-22T07:10:14;101420.37;;;40.17;20.27
79374;BME280;68844;53.128;17.958;2023-06-22T07:12:41;101420.27;;;40.65;19.80
79374;BME280;68844;53.128;17.958;2023-06-22T07:15:09;101415.88;;;40.51;19.93
79374;BME280;68844;53.128;17.958;2023-06-22T07:17:36;101425.54;;;40.88;19.74
79374;BME280;68844;53.128;17.958;2023-06-22T07:20:04;101424.00;;;41.05;20.18
79374;BME280;68844;53.128;17.958;2023-06-22T07:22:40;101426.64;;;41.52;19.31
79374;BME280;68844;53.128;17.958;2023-06-22T07:25:07;101429.38;;;41.62;19.14
79374;BME280;68844;53.128;17.958;2023-06-22T07:27:59;101431.59;;;41.76;19.51
79374;BME280;68844;53.128;17.958;2023-06-22T07:30:28;101440.27;;;42.15;18.76
79374;BME280;68844;53.128;17.958;2023-06-22T07:32:55;101441.58;;;41.88;18.37
79374;BME280;68844;53.128;17.958;2023-06-22T07:35:21;101436.55;;;41.67;18.39
79374;BME280;68844;53.128;17.958;2023-06-22T07:37:48;101437.62;;;41.51;18.17
79374;BME280;68844;53.128;17.958;2023-06-22T07:40:15;101439.95;;;41.24;18.85
79374;BME280;68844;53.128;17.958;2023-06-22T07:42:42;101443.39;;;41.47;18.85
79374;BME280;68844;53.128;17.958;2023-06-22T07:45:09;101441.14;;;41.33;18.37
79374;BME280;68844;53.128;17.958;2023-06-22T07:47:35;101441.50;;;41.44;18.70
79374;BME280;68844;53.128;17.958;2023-06-22T07:50:03;101437.20;;;41.29;18.63
79374;BME280;68844;53.128;17.958;2023-06-22T07:52:31;101435.11;;;41.19;18.68
79374;BME280;68844;53.128;17.958;2023-06-22T07:54:58;101434.00;;;41.51;18.26
79374;BME280;68844;53.128;17.958;2023-06-22T07:57:24;101432.41;;;41.64;18.85
79374;BME280;68844;53.128;17.958;2023-06-22T08:00:11;101432.48;;;41.98;18.50
79374;BME280;68844;53.128;17.958;2023-06-22T08:02:42;101436.23;;;41.88;18.59
79374;BME280;68844;53.128;17.958;2023-06-22T08:05:10;101440.63;;;41.90;18.18
79374;BME280;68844;53.128;17.958;2023-06-22T08:07:38;101439.02;;;41.21;19.33
79374;BME280;68844;53.128;17.958;2023-06-22T08:10:05;101435.43;;;41.31;18.82
79374;BME280;68844;53.128;17.958;2023-06-22T08:12:32;101448.70;;;41.39;18.77
79374;BME280;68844;53.128;17.958;2023-06-22T08:14:58;101446.69;;;41.69;18.45
79374;BME280;68844;53.128;17.958;2023-06-22T08:17:26;101453.67;;;41.75;18.03
79374;BME280;68844;53.128;17.958;2023-06-22T08:19:52;101458.92;;;41.30;18.43
79374;BME280;68844;53.128;17.958;2023-06-22T08:22:19;101459.39;;;41.30;18.56
79374;BME280;68844;53.128;17.958;2023-06-22T08:24:46;101452.18;;;41.65;18.42
79374;BME280;68844;53.128;17.958;2023-06-22T08:27:13;101441.52;;;41.60;17.64
79374;BME280;68844;53.128;17.958;2023-06-22T08:29:40;101444.84;;;41.31;18.19
79374;BME280;68844;53.128;17.958;2023-06-22T08:32:09;101446.41;;;41.36;18.37
79374;BME280;68844;53.128;17.958;2023-06-22T08:34:36;101440.75;;;41.79;17.71
79374;BME280;68844;53.128;17.958;2023-06-22T08:37:03;101439.06;;;41.45;17.68
79374;BME280;68844;53.128;17.958;2023-06-22T08:39:32;101438.77;;;40.63;18.26
79374;BME280;68844;53.128;17.958;2023-06-22T08:41:59;101438.90;;;41.07;18.91
79374;BME280;68844;53.128;17.958;2023-06-22T08:44:26;101435.98;;;41.91;18.95
79374;BME280;68844;53.128;17.958;2023-06-22T08:46:53;101429.98;;;42.57;17.97
79374;BME280;68844;53.128;17.958;2023-06-22T08:49:19;101428.35;;;43.10;17.61
79374;BME280;68844;53.128;17.958;2023-06-22T08:51:46;101430.30;;;42.92;16.46
79374;BME280;68844;53.128;17.958;2023-06-22T08:54:15;101436.08;;;42.16;17.52
79374;BME280;68844;53.128;17.958;2023-06-22T08:56:42;101432.14;;;41.99;17.34
79374;BME280;68844;53.128;17.958;2023-06-22T08:59:10;101429.75;;;42.00;17.09
79374;BME280;68844;53.128;17.958;2023-06-22T09:01:37;101433.21;;;42.22;17.34
79374;BME280;68844;53.128;17.958;2023-06-22T09:04:04;101434.83;;;42.52;17.24
79374;BME280;68844;53.128;17.958;2023-06-22T09:06:32;101430.48;;;42.72;17.35
79374;BME280;68844;53.128;17.958;2023-06-22T09:08:59;101426.98;;;42.69;17.26
79374;BME280;68844;53.128;17.958;2023-06-22T09:11:28;101426.70;;;42.95;16.68
79374;BME280;68844;53.128;17.958;2023-06-22T09:13:55;101424.92;;;42.95;16.04
79374;BME280;68844;53.128;17.958;2023-06-22T09:16:22;101419.71;;;42.92;16.12
79374;BME280;68844;53.128;17.958;2023-06-22T09:18:49;101412.50;;;42.48;15.85
79374;BME280;68844;53.128;17.958;2023-06-22T09:21:16;101409.36;;;42.52;16.42
79374;BME280;68844;53.128;17.958;2023-06-22T09:23:42;101408.17;;;42.05;15.94
79374;BME280;68844;53.128;17.958;2023-06-22T09:26:09;101405.05;;;41.52;16.82
79374;BME280;68844;53.128;17.958;2023-06-22T09:28:36;101401.23;;;41.75;16.76
79374;BME280;68844;53.128;17.958;2023-06-22T09:31:02;101400.28;;;41.54;17.11
79374;BME280;68844;53.128;17.958;2023-06-22T09:33:29;101402.19;;;41.84;16.46
79374;BME280;68844;53.128;17.958;2023-06-22T09:35:56;101399.29;;;41.56;16.17
79374;BME280;68844;53.128;17.958;2023-06-22T09:38:23;101399.70;;;40.84;17.09
79374;BME280;68844;53.128;17.958;2023-06-22T09:40:49;101396.42;;;40.98;16.89
79374;BME280;68844;53.128;17.958;2023-06-22T09:43:16;101400.93;;;41.33;17.63
79374;BME280;68844;53.128;17.958;2023-06-22T09:45:43;101394.36;;;41.64;17.02
79374;BME280;68844;53.128;17.958;2023-06-22T09:48:10;101394.86;;;42.11;16.47
79374;BME280;68844;53.128;17.958;2023-06-22T09:50:36;101390.41;;;41.81;16.18
79374;BME280;68844;53.128;17.958;2023-06-22T09:53:03;101390.55;;;40.60;17.02
79374;BME280;68844;53.128;17.958;2023-06-22T09:55:32;101386.50;;;40.98;17.52
79374;BME280;68844;53.128;17.958;2023-06-22T09:58:02;101395.20;;;40.99;18.13
79374;BME280;68844;53.128;17.958;2023-06-22T10:00:29;101391.96;;;41.13;18.45
79374;BME280;68844;53.128;17.958;2023-06-22T10:02:56;101389.27;;;41.03;17.00
79374;BME280;68844;53.128;17.958;2023-06-22T10:05:23;101393.59;;;41.01;16.87
79374;BME280;68844;53.128;17.958;2023-06-22T10:07:51;101395.15;;;40.48;17.50
79374;BME280;68844;53.128;17.958;2023-06-22T10:10:17;101383.11;;;39.89;18.36
79374;BME280;68844;53.128;17.958;2023-06-22T10:12:55;101383.56;;;39.64;17.91
79374;BME280;68844;53.128;17.958;2023-06-22T10:15:22;101379.46;;;39.44;17.78
79374;BME280;68844;53.128;17.958;2023-06-22T10:17:48;101381.20;;;39.29;19.25
79374;BME280;68844;53.128;17.958;2023-06-22T10:20:15;101380.17;;;39.68;18.57
79374;BME280;68844;53.128;17.958;2023-06-22T10:22:45;101376.90;;;39.76;18.43
79374;BME280;68844;53.128;17.958;2023-06-22T10:25:13;101371.69;;;39.87;17.91
79374;BME280;68844;53.128;17.958;2023-06-22T10:27:39;101374.21;;;39.63;18.47
79374;BME280;68844;53.128;17.958;2023-06-22T10:30:10;101370.09;;;39.89;18.33
79374;BME280;68844;53.128;17.958;2023-06-22T10:32:39;101372.73;;;39.44;18.76
79374;BME280;68844;53.128;17.958;2023-06-22T10:35:06;101373.35;;;39.60;18.29
79374;BME280;68844;53.128;17.958;2023-06-22T10:37:33;101370.48;;;39.05;18.22
79374;BME280;68844;53.128;17.958;2023-06-22T10:40:00;101371.94;;;38.99;18.81
79374;BME280;68844;53.128;17.958;2023-06-22T10:42:26;101374.30;;;38.89;18.79
79374;BME280;68844;53.128;17.958;2023-06-22T10:44:53;101376.29;;;38.26;19.60
79374;BME280;68844;53.128;17.958;2023-06-22T10:47:20;101378.65;;;38.06;18.83
79374;BME280;68844;53.128;17.958;2023-06-22T10:49:46;101368.14;;;37.86;19.72
79374;BME280;68844;53.128;17.958;2023-06-22T10:52:13;101360.55;;;38.06;19.91
79374;BME280;68844;53.128;17.958;2023-06-22T10:54:41;101357.39;;;38.09;18.99
79374;BME280;68844;53.128;17.958;2023-06-22T10:57:07;101354.62;;;37.79;20.21
79374;BME280;68844;53.128;17.958;2023-06-22T10:59:34;101351.13;;;37.89;19.63
79374;BME280;68844;53.128;17.958;2023-06-22T11:02:01;101355.84;;;37.70;20.07
79374;BME280;68844;53.128;17.958;2023-06-22T11:04:28;101358.21;;;37.41;20.74
79374;BME280;68844;53.128;17.958;2023-06-22T11:06:55;101354.30;;;37.34;20.81
79374;BME280;68844;53.128;17.958;2023-06-22T11:09:22;101354.77;;;37.67;20.97
79374;BME280;68844;53.128;17.958;2023-06-22T11:11:51;101356.44;;;37.22;19.92
79374;BME280;68844;53.128;17.958;2023-06-22T11:14:21;101364.58;;;36.13;20.37
79374;BME280;68844;53.128;17.958;2023-06-22T11:16:48;101361.22;;;35.70;21.24
79374;BME280;68844;53.128;17.958;2023-06-22T11:19:15;101356.00;;;35.58;21.42
79374;BME280;68844;53.128;17.958;2023-06-22T11:21:42;101356.33;;;35.24;22.22
79374;BME280;68844;53.128;17.958;2023-06-22T11:24:09;101351.99;;;35.19;23.31
79374;BME280;68844;53.128;17.958;2023-06-22T11:26:36;101351.34;;;35.54;24.32
79374;BME280;68844;53.128;17.958;2023-06-22T11:29:03;101349.51;;;35.98;23.10
79374;BME280;68844;53.128;17.958;2023-06-22T11:31:36;101352.83;;;36.04;23.02
79374;BME280;68844;53.128;17.958;2023-06-22T11:34:03;101349.63;;;36.08;21.99
79374;BME280;68844;53.128;17.958;2023-06-22T11:36:30;101354.95;;;35.73;21.99
79374;BME280;68844;53.128;17.958;2023-06-22T11:38:59;101348.27;;;35.53;21.70
79374;BME280;68844;53.128;17.958;2023-06-22T11:41:26;101355.55;;;35.49;21.67
79374;BME280;68844;53.128;17.958;2023-06-22T11:43:53;101351.84;;;34.92;22.38
79374;BME280;68844;53.128;17.958;2023-06-22T11:46:20;101348.20;;;34.92;23.59
79374;BME280;68844;53.128;17.958;2023-06-22T11:48:47;101347.60;;;35.37;24.10
79374;BME280;68844;53.128;17.958;2023-06-22T11:51:13;101348.59;;;35.54;22.92
79374;BME280;68844;53.128;17.958;2023-06-22T11:53:40;101348.32;;;35.56;23.73
79374;BME280;68844;53.128;17.958;2023-06-22T11:56:07;101344.39;;;35.60;22.95
79374;BME280;68844;53.128;17.958;2023-06-22T11:58:34;101337.52;;;35.41;22.12
79374;BME280;68844;53.128;17.958;2023-06-22T12:01:00;101338.94;;;35.19;22.83
79374;BME280;68844;53.128;17.958;2023-06-22T12:03:27;101341.33;;;35.35;21.75
79374;BME280;68844;53.128;17.958;2023-06-22T12:05:54;101331.62;;;35.29;22.03
79374;BME280;68844;53.128;17.958;2023-06-22T12:08:20;101329.32;;;35.43;22.82
79374;BME280;68844;53.128;17.958;2023-06-22T12:10:49;101324.23;;;35.18;21.53
79374;BME280;68844;53.128;17.958;2023-06-22T12:13:16;101315.79;;;34.59;22.04
79374;BME280;68844;53.128;17.958;2023-06-22T12:15:43;101313.50;;;33.93;23.28
79374;BME280;68844;53.128;17.958;2023-06-22T12:18:09;101316.08;;;33.98;23.20
79374;BME280;68844;53.128;17.958;2023-06-22T12:20:36;101311.37;;;33.99;23.62
79374;BME280;68844;53.128;17.958;2023-06-22T12:23:03;101309.40;;;34.22;23.71
79374;BME280;68844;53.128;17.958;2023-06-22T12:25:30;101309.66;;;34.20;22.85
79374;BME280;68844;53.128;17.958;2023-06-22T12:27:57;101308.49;;;34.25;24.23
79374;BME280;68844;53.128;17.958;2023-06-22T12:30:23;101304.85;;;34.50;23.98
79374;BME280;68844;53.128;17.958;2023-06-22T12:32:50;101303.52;;;34.46;23.17
79374;BME280;68844;53.128;17.958;2023-06-22T12:35:17;101308.79;;;33.97;23.88
79374;BME280;68844;53.128;17.958;2023-06-22T12:37:44;101304.23;;;33.99;23.91
79374;BME280;68844;53.128;17.958;2023-06-22T12:40:11;101304.50;;;34.20;23.38
79374;BME280;68844;53.128;17.958;2023-06-22T12:42:38;101301.36;;;34.29;23.61
79374;BME280;68844;53.128;17.958;2023-06-22T12:45:05;101296.88;;;34.46;23.30
79374;BME280;68844;53.128;17.958;2023-06-22T12:47:32;101288.69;;;34.59;22.32
79374;BME280;68844;53.128;17.958;2023-06-22T12:49:59;101287.94;;;34.24;21.99
79374;BME280;68844;53.128;17.958;2023-06-22T12:52:26;101290.60;;;34.20;23.28